Time;durP1;ratioP1;P1;durP2;ratioP2;P2;SDS_P1;SDS_P2;PMS_P1;PMS_P2;Temp;Humidity;BMP_temperature;BMP_pressure;BME280_temperature;BME280_humidity;BME280_pressure;Samples;Min_cycle;Max_cycle;Signal;HPM_P1;HPM_P2
2021/05/27 08:33:21;;;;;;;14.93;9.40;;;;;;;22.16;62.65;99848.59;4998594;27;20393;-77
2021/05/27 08:35:47;;;;;;;8.88;7.97;;;;;;;22.08;61.28;99846.88;4970606;28;20053;-82
2021/05/27 08:38:13;;;;;;;8.82;7.93;;;;;;;21.97;61.68;99852.25;5005237;28;20049;-82
2021/05/27 08:40:39;;;;;;;10.07;8.32;;;;;;;21.75;62.01;99858.09;5031590;28;20081;-83
2021/05/27 08:43:05;;;;;;;10.85;9.07;;;;;;;21.71;62.08;99856.84;5021526;28;20443;-81
2021/05/27 08:45:37;;;;;;;8.68;7.45;;;;;;;21.64;62.11;99856.03;5021243;28;20488;-80
2021/05/27 08:48:03;;;;;;;9.05;8.15;;;;;;;21.55;62.02;99852.69;5023131;28;20499;-81
2021/05/27 08:52:24;;;;;;;9.45;8.18;;;;;;;21.45;62.18;99851.44;5094421;27;1368334;-82
2021/05/27 08:54:50;;;;;;;9.40;8.50;;;;;;;21.49;63.16;99858.22;5105273;28;20376;-82
2021/05/27 08:57:16;;;;;;;23.05;11.35;;;;;;;21.59;62.70;99853.09;5123545;28;20050;-82
2021/05/27 08:59:41;;;;;;;70.78;22.65;;;;;;;21.78;62.48;99852.16;5106678;28;20751;-79
2021/05/27 09:02:08;;;;;;;25.85;13.85;;;;;;;21.64;62.99;99845.00;5063349;28;20469;-71
2021/05/27 09:04:34;;;;;;;24.60;12.48;;;;;;;21.66;62.88;99853.91;5083093;28;20036;-72
2021/05/27 09:07:00;;;;;;;28.67;12.90;;;;;;;21.72;63.24;99853.03;5079389;28;20036;-72
2021/05/27 09:09:50;;;;;;;20.05;11.45;;;;;;;21.76;62.56;99857.03;5080618;28;20146;-73
2021/05/27 09:12:31;;;;;;;20.63;12.98;;;;;;;21.72;63.28;99863.19;5080119;28;20066;-77
2021/05/27 09:14:58;;;;;;;17.52;12.48;;;;;;;21.72;63.14;99855.78;5078862;28;20028;-72
2021/05/27 09:18:06;;;;;;;12.40;9.82;;;;;;;21.67;62.57;99852.84;5078776;28;20083;-69
2021/05/27 09:20:51;;;;;;;10.85;9.20;;;;;;;21.60;62.70;99863.03;5054025;28;20488;-68
2021/05/27 09:23:36;;;;;;;10.65;8.82;;;;;;;21.56;62.94;99859.03;5080299;28;20489;-69
2021/05/27 09:29:28;;;;;;;9.93;8.93;;;;;;;21.49;62.24;99852.69;5063223;28;20044;-69
2021/05/27 09:31:57;;;;;;;13.48;7.90;;;;;;;21.52;62.28;99849.53;5080621;28;20048;-70
2021/05/27 09:35:00;;;;;;;14.35;7.63;;;;;;;21.54;62.06;99850.16;5082261;28;20043;-70
2021/05/27 09:37:46;;;;;;;10.05;8.90;;;;;;;21.50;62.00;99851.63;5063584;28;20048;-70
2021/05/27 09:49:26;;;;;;;10.85;8.52;;;;;;;21.48;62.10;99849.09;5083982;27;20389;-70
2021/05/27 09:52:34;;;;;;;9.43;7.60;;;;;;;21.45;62.50;99859.72;5069507;28;20051;-70
2021/05/27 10:01:53;;;;;;;9.50;8.50;;;;;;;21.43;62.46;99859.94;5075466;28;20040;-69
2021/05/27 10:04:56;;;;;;;10.70;8.63;;;;;;;21.34;62.29;99862.06;5033688;28;20138;-70
2021/05/27 10:07:41;;;;;;;11.87;8.83;;;;;;;21.36;62.16;99862.69;4948218;28;2508103;-71
2021/05/27 10:10:08;;;;;;;10.55;8.88;;;;;;;21.32;62.73;99857.81;5076945;28;20625;-72
2021/05/27 10:12:38;;;;;;;12.45;10.13;;;;;;;21.10;63.34;99844.34;5076577;28;20040;-71
2021/05/27 10:15:11;;;;;;;12.07;9.70;;;;;;;20.85;64.20;99848.81;5070841;28;20067;-72
2021/05/27 10:17:37;;;;;;;14.77;10.10;;;;;;;20.75;64.47;99852.00;5073160;28;20124;-71
2021/05/27 10:20:06;;;;;;;11.52;10.43;;;;;;;20.68;65.15;99851.16;5070811;28;20090;-71
2021/05/27 10:22:32;;;;;;;11.60;10.40;;;;;;;20.60;65.62;99848.63;5070951;28;20128;-69
2021/05/27 10:25:00;;;;;;;12.30;10.68;;;;;;;20.52;65.18;99852.44;5072773;28;20069;-69
2021/05/27 10:27:26;;;;;;;13.63;10.23;;;;;;;20.44;66.08;99856.22;5069674;28;20056;-68
2021/05/27 10:29:52;;;;;;;13.80;10.95;;;;;;;20.48;65.52;99862.97;5068538;28;20127;-69
2021/05/27 10:32:18;;;;;;;17.27;12.07;;;;;;;19.79;67.33;99873.38;5070913;28;20044;-67
2021/05/27 10:34:50;;;;;;;14.27;10.70;;;;;;;19.69;66.89;99860.03;5071705;28;20062;-69
2021/05/27 10:37:37;;;;;;;13.48;11.07;;;;;;;19.57;67.83;99864.41;5078027;28;20048;-67
2021/05/27 10:40:12;;;;;;;11.48;10.23;;;;;;;19.44;67.63;99865.19;5074171;28;20131;-67
2021/05/27 10:42:56;;;;;;;14.20;9.95;;;;;;;19.39;67.38;99865.78;5075121;28;20117;-67
2021/05/27 10:45:26;;;;;;;11.05;9.85;;;;;;;19.43;67.62;99867.06;5066968;28;20435;-67
2021/05/27 10:48:14;;;;;;;10.65;9.40;;;;;;;19.50;67.41;99858.88;5073170;28;20501;-68
2021/05/27 10:53:40;;;;;;;13.35;11.55;;;;;;;19.39;68.60;99862.22;5073001;28;20048;-67
2021/05/27 10:56:11;;;;;;;11.82;10.77;;;;;;;19.38;69.20;99865.97;5067139;28;20109;-67
2021/05/27 10:58:48;;;;;;;15.40;11.63;;;;;;;19.18;69.48;99865.88;5069540;28;20067;-67
2021/05/27 11:01:15;;;;;;;14.00;11.43;;;;;;;19.14;69.25;99864.59;5063750;28;20041;-67
2021/05/27 11:03:48;;;;;;;12.80;11.50;;;;;;;19.19;70.04;99853.88;5060484;28;20052;-67
2021/05/27 11:06:31;;;;;;;13.27;11.05;;;;;;;19.21;69.51;99860.00;5055206;28;20082;-67
2021/05/27 11:11:50;;;;;;;14.85;11.90;;;;;;;19.34;69.85;99854.56;5054099;28;20068;-66
2021/05/27 11:14:19;;;;;;;11.13;9.98;;;;;;;19.31;68.77;99857.75;5053363;28;20068;-68
2021/05/27 11:17:14;;;;;;;12.45;11.02;;;;;;;19.24;70.00;99854.13;5060700;28;20082;-67
2021/05/27 11:25:09;;;;;;;12.00;10.70;;;;;;;19.26;69.39;99852.00;5055707;28;20040;-67
2021/05/27 11:28:03;;;;;;;13.75;10.70;;;;;;;19.32;69.09;99858.59;5057982;28;20060;-66
2021/05/27 11:30:36;;;;;;;14.02;9.80;;;;;;;19.27;68.64;99856.47;5051942;28;20041;-67
2021/05/27 11:33:21;;;;;;;11.93;10.32;;;;;;;19.18;68.95;99861.25;5055524;28;20033;-67
2021/05/27 11:35:52;;;;;;;15.18;10.23;;;;;;;19.31;68.87;99860.50;5061728;28;20036;-69
2021/05/27 11:38:20;;;;;;;10.38;9.38;;;;;;;19.51;67.57;99857.81;5057239;28;20549;-69
2021/05/27 11:40:50;;;;;;;10.68;9.45;;;;;;;19.66;67.23;99863.19;5055319;28;20108;-66
2021/05/27 11:43:17;;;;;;;13.20;10.70;;;;;;;19.61;68.01;99865.69;5051564;28;20136;-68
2021/05/27 11:45:46;;;;;;;11.48;10.35;;;;;;;19.41;66.99;99866.41;5056984;28;20803;-67
2021/05/27 11:50:44;;;;;;;14.40;10.07;;;;;;;19.41;67.21;99866.41;5057610;28;20048;-68
2021/05/27 11:53:10;;;;;;;9.73;8.82;;;;;;;19.54;66.38;99859.31;5051834;28;20049;-68
2021/05/27 11:55:36;;;;;;;10.35;9.20;;;;;;;19.69;66.57;99852.66;5051746;28;20045;-66
2021/05/27 11:58:04;;;;;;;15.02;9.85;;;;;;;19.65;67.16;99845.06;5056845;28;20136;-68
2021/05/27 12:00:31;;;;;;;11.73;10.52;;;;;;;19.59;68.03;99845.84;5051538;28;20056;-67
2021/05/27 12:03:00;;;;;;;11.27;10.18;;;;;;;19.50;68.78;99843.28;5055932;28;20036;-68
2021/05/27 12:05:35;;;;;;;11.95;10.75;;;;;;;19.49;68.52;99836.09;5045443;28;20036;-66
2021/05/27 12:08:10;;;;;;;12.98;10.25;;;;;;;19.45;68.25;99833.97;5061275;28;20056;-67
2021/05/27 12:10:37;;;;;;;11.25;10.15;;;;;;;19.55;68.88;99834.44;5052981;28;20083;-67
2021/05/27 12:13:04;;;;;;;11.45;10.18;;;;;;;19.48;68.07;99837.13;5056713;28;20120;-68
2021/05/27 12:15:31;;;;;;;13.20;11.90;;;;;;;19.36;69.20;99830.56;5054104;28;20078;-67
2021/05/27 12:17:58;;;;;;;13.15;11.80;;;;;;;19.39;69.51;99830.16;5054931;28;20136;-67
2021/05/27 12:20:35;;;;;;;13.25;11.80;;;;;;;19.48;69.54;99828.91;5053933;28;20036;-67
2021/05/27 12:23:05;;;;;;;14.75;12.45;;;;;;;19.77;68.28;99815.97;5061127;28;20290;-68
2021/05/27 12:25:40;;;;;;;12.88;11.52;;;;;;;20.23;67.28;99804.22;5061643;28;20070;-70
2021/05/27 12:28:10;;;;;;;14.27;11.40;;;;;;;20.71;66.41;99801.28;5054946;28;20049;-67
2021/05/27 12:30:37;;;;;;;39.55;14.18;;;;;;;20.68;65.47;99802.53;5052005;28;20086;-68
2021/05/27 12:33:07;;;;;;;21.55;12.98;;;;;;;21.14;64.93;99800.75;5062507;28;20075;-67
2021/05/27 12:35:38;;;;;;;12.55;11.20;;;;;;;21.21;64.33;99796.09;5053720;28;20127;-67
2021/05/27 12:38:05;;;;;;;15.45;11.70;;;;;;;21.26;64.40;99793.53;5055894;28;20040;-67
2021/05/27 12:40:36;;;;;;;13.52;11.48;;;;;;;20.82;65.14;99786.88;5053473;28;20040;-68
2021/05/27 12:43:19;;;;;;;12.57;9.88;;;;;;;21.37;63.57;99790.13;5055396;28;20127;-68
2021/05/27 12:45:45;;;;;;;14.45;11.65;;;;;;;21.54;63.00;99781.38;5062694;28;20032;-68
2021/05/27 12:48:13;;;;;;;24.92;11.15;;;;;;;21.45;62.94;99785.44;5060440;28;20063;-67
2021/05/27 12:50:42;;;;;;;15.32;11.20;;;;;;;21.54;62.96;99792.38;5058051;28;20071;-67
2021/05/27 12:53:28;;;;;;;13.55;10.88;;;;;;;21.92;61.51;99779.44;5053304;28;20059;-68
2021/05/27 12:55:56;;;;;;;14.77;9.93;;;;;;;22.26;60.86;99777.31;5057012;28;20036;-69
2021/05/27 12:58:32;;;;;;;16.55;10.93;;;;;;;22.44;60.54;99772.94;5057831;28;20056;-68
2021/05/27 13:01:00;;;;;;;19.10;12.48;;;;;;;22.17;62.03;99767.66;5056743;28;20109;-69
2021/05/27 13:03:28;;;;;;;19.63;11.95;;;;;;;22.62;60.68;99775.72;5054011;28;20510;-78
2021/05/27 13:06:09;;;;;;;16.15;11.20;;;;;;;22.74;59.16;99773.91;5058908;28;20037;-78
2021/05/27 13:08:36;;;;;;;11.55;10.02;;;;;;;21.96;60.57;99759.72;5058088;28;20044;-76
2021/05/27 13:11:26;;;;;;;11.90;10.70;;;;;;;21.52;61.86;99762.31;5054495;28;20536;-80
2021/05/27 13:13:53;;;;;;;10.55;9.45;;;;;;;22.01;59.42;99757.13;5055066;28;20051;-77
2021/05/27 13:16:35;;;;;;;12.23;9.00;;;;;;;21.44;59.36;99757.09;5023544;28;20326;-76
2021/05/27 13:19:03;;;;;;;8.07;7.28;;;;;;;21.55;57.68;99758.31;5058327;28;20052;-76
2021/05/27 13:21:41;;;;;;;10.30;9.23;;;;;;;21.65;60.04;99761.44;5078405;28;20040;-76
2021/05/27 13:24:33;;;;;;;9.75;8.77;;;;;;;22.25;58.02;99759.09;5053210;28;20432;-76
2021/05/27 13:27:31;;;;;;;11.73;10.20;;;;;;;22.31;58.59;99763.72;5076132;28;20134;-78
2021/05/27 13:30:05;;;;;;;10.32;9.32;;;;;;;22.28;59.69;99761.41;5054403;28;20040;-78
2021/05/27 13:32:40;;;;;;;14.10;10.07;;;;;;;22.14;60.55;99762.59;5058324;28;20064;-78
2021/05/27 13:35:08;;;;;;;10.48;9.35;;;;;;;21.73;61.19;99750.16;5063251;28;20049;-77
2021/05/27 13:37:40;;;;;;;14.95;9.40;;;;;;;21.81;60.69;99755.38;5060397;28;20136;-77
2021/05/27 13:40:09;;;;;;;10.70;9.60;;;;;;;21.72;61.42;99748.47;5061874;28;20048;-77
2021/05/27 13:42:35;;;;;;;9.93;9.00;;;;;;;21.33;62.10;99744.00;5058919;28;20472;-77
2021/05/27 13:45:02;;;;;;;9.75;8.85;;;;;;;21.05;62.43;99747.06;5054494;28;20540;-78
2021/05/27 13:47:28;;;;;;;9.52;8.27;;;;;;;20.76;62.53;99738.28;5058969;28;20048;-77
2021/05/27 13:49:54;;;;;;;9.18;7.47;;;;;;;20.89;61.76;99738.25;5069240;28;20426;-78
2021/05/27 13:52:20;;;;;;;10.25;8.15;;;;;;;20.76;62.11;99732.78;5055958;28;20052;-79
2021/05/27 13:54:52;;;;;;;10.18;8.45;;;;;;;20.91;62.18;99730.66;5059360;28;20075;-76
2021/05/27 13:57:18;;;;;;;8.98;7.57;;;;;;;21.16;61.60;99735.38;5052465;28;20095;-77
2021/05/27 13:59:44;;;;;;;12.73;8.45;;;;;;;21.58;61.02;99731.19;5047477;28;20179;-76
2021/05/27 14:02:10;;;;;;;9.63;7.90;;;;;;;21.87;60.70;99729.72;5059282;28;20130;-78
2021/05/27 14:04:37;;;;;;;13.15;8.10;;;;;;;21.61;61.46;99739.00;5056348;28;20132;-79
2021/05/27 14:07:03;;;;;;;8.15;7.35;;;;;;;21.57;61.59;99739.66;5055622;28;20049;-77
2021/05/27 14:09:28;;;;;;;7.20;6.50;;;;;;;21.34;60.93;99740.22;5057350;28;20093;-76
2021/05/27 14:11:54;;;;;;;8.65;6.93;;;;;;;20.97;61.83;99731.66;5046089;28;20044;-79
2021/05/27 14:14:20;;;;;;;7.97;7.18;;;;;;;20.88;62.44;99730.22;5052607;28;20059;-80
2021/05/27 14:16:46;;;;;;;11.23;8.38;;;;;;;20.69;64.22;99726.44;5055303;28;20040;-78
2021/05/27 14:19:12;;;;;;;7.55;6.85;;;;;;;20.73;63.15;99724.97;5055814;28;20037;-74
2021/05/27 14:21:38;;;;;;;8.05;7.30;;;;;;;20.66;64.42;99726.91;5053804;28;20461;-78
2021/05/27 14:24:05;;;;;;;8.50;7.53;;;;;;;20.73;64.42;99724.97;5058969;28;20032;-77
2021/05/27 14:26:31;;;;;;;7.65;6.95;;;;;;;20.74;64.17;99728.56;5052719;28;20040;-77
2021/05/27 14:28:57;;;;;;;7.47;6.80;;;;;;;20.97;63.31;99717.91;5053105;28;20051;-77
2021/05/27 14:31:23;;;;;;;10.25;7.30;;;;;;;20.93;62.82;99717.50;5054034;28;20591;-76
2021/05/27 14:33:49;;;;;;;7.80;7.05;;;;;;;20.70;63.73;99711.69;5070408;28;20079;-78
2021/05/27 14:36:15;;;;;;;8.15;7.30;;;;;;;20.69;64.11;99720.97;5060990;28;20080;-78
2021/05/27 14:38:41;;;;;;;8.25;7.22;;;;;;;20.69;63.67;99723.72;5059139;28;20235;-77
2021/05/27 14:41:09;;;;;;;8.20;7.30;;;;;;;20.51;63.21;99712.56;5061587;28;20104;-75
2021/05/27 14:43:35;;;;;;;7.95;7.15;;;;;;;20.51;63.38;99712.56;5056590;28;20044;-78
2021/05/27 14:46:02;;;;;;;10.55;8.18;;;;;;;20.57;64.01;99714.44;5056418;28;20667;-75
2021/05/27 14:48:27;;;;;;;7.65;6.95;;;;;;;20.58;63.42;99707.88;5061656;28;20499;-78
2021/05/27 14:50:53;;;;;;;8.02;7.20;;;;;;;20.59;63.23;99715.09;5052167;28;20151;-76
2021/05/27 14:53:19;;;;;;;9.18;8.10;;;;;;;20.45;64.17;99715.06;5056530;28;20098;-79
2021/05/27 14:55:45;;;;;;;9.10;7.10;;;;;;;20.57;64.32;99714.44;5058950;28;20536;-76
2021/05/27 14:58:10;;;;;;;10.13;7.57;;;;;;;20.67;63.92;99720.34;5060889;28;20104;-78
2021/05/27 15:00:36;;;;;;;10.30;8.40;;;;;;;20.79;63.94;99715.88;5035881;28;20130;-77
2021/05/27 15:03:02;;;;;;;8.88;7.55;;;;;;;20.89;63.30;99720.91;5010393;28;61790;-80
2021/05/27 15:05:28;;;;;;;10.00;8.75;;;;;;;20.87;63.77;99718.38;5062548;28;20060;-75
2021/05/27 15:07:54;;;;;;;9.65;8.60;;;;;;;20.82;63.64;99720.94;5074259;28;20390;-77
2021/05/27 15:10:20;;;;;;;9.27;7.80;;;;;;;21.10;62.97;99717.03;5056618;28;20048;-78
2021/05/27 15:12:46;;;;;;;11.80;8.85;;;;;;;21.32;62.63;99710.16;5067249;28;20090;-75
2021/05/27 15:15:12;;;;;;;13.40;9.35;;;;;;;21.48;62.30;99716.22;5052341;28;20485;-75
2021/05/27 15:17:38;;;;;;;9.57;8.13;;;;;;;21.39;62.57;99705.50;5063916;28;20040;-80
2021/05/27 15:20:06;;;;;;;9.93;8.52;;;;;;;21.17;63.23;99717.81;5066952;28;20485;-73
2021/05/27 15:22:32;;;;;;;9.93;8.40;;;;;;;21.54;61.97;99712.59;5059011;28;20044;-66
2021/05/27 15:24:58;;;;;;;14.85;8.13;;;;;;;21.81;60.92;99716.84;5056234;28;20044;-74
2021/05/27 15:27:24;;;;;;;11.68;7.80;;;;;;;22.09;60.19;99715.59;5055788;28;20041;-74
2021/05/27 15:29:56;;;;;;;9.32;8.20;;;;;;;22.34;58.94;99712.81;5054238;28;20053;-79
2021/05/27 15:32:22;;;;;;;9.80;8.25;;;;;;;22.46;58.92;99711.03;5049716;28;20049;-76
2021/05/27 15:34:52;;;;;;;8.45;7.47;;;;;;;22.42;58.72;99715.31;5056475;28;20060;-73
2021/05/27 15:37:20;;;;;;;9.13;7.07;;;;;;;22.54;58.07;99705.22;5057385;28;20032;-81
2021/05/27 15:39:50;;;;;;;9.45;7.70;;;;;;;22.66;57.53;99713.56;5059615;28;20040;-81
2021/05/27 15:42:16;;;;;;;10.35;7.43;;;;;;;22.72;57.74;99715.41;5055677;28;20041;-74
2021/05/27 15:44:43;;;;;;;8.90;6.63;;;;;;;22.79;57.40;99705.16;5068231;28;20059;-75
2021/05/27 15:47:09;;;;;;;9.75;7.68;;;;;;;22.82;57.97;99701.13;5054921;28;20121;-76
2021/05/27 15:49:35;;;;;;;9.20;7.47;;;;;;;22.87;58.38;99695.75;5052692;28;20025;-75
2021/05/27 15:52:03;;;;;;;8.77;6.97;;;;;;;22.87;57.16;99699.31;5054985;28;20551;-77
2021/05/27 15:54:30;;;;;;;9.40;7.28;;;;;;;22.70;57.07;99689.97;5051446;28;20539;-73
2021/05/27 15:56:56;;;;;;;10.43;7.65;;;;;;;22.33;58.08;99684.44;5055394;28;20250;-78
2021/05/27 15:59:23;;;;;;;10.05;7.15;;;;;;;21.86;58.42;99681.22;5074862;28;20108;-75
2021/05/27 16:01:50;;;;;;;9.27;6.50;;;;;;;21.65;59.20;99681.63;5067328;28;20068;-76
2021/05/27 16:04:16;;;;;;;7.38;6.47;;;;;;;21.43;60.13;99678.41;5066028;28;20118;-76
2021/05/27 16:06:42;;;;;;;7.70;6.90;;;;;;;21.25;60.65;99679.09;5058961;28;20393;-76
2021/05/27 16:09:08;;;;;;;7.72;6.90;;;;;;;21.14;61.26;99668.81;5061257;28;20056;-74
2021/05/27 16:11:34;;;;;;;8.63;7.40;;;;;;;20.99;61.68;99670.97;5068894;28;20139;-77
2021/05/27 16:14:00;;;;;;;8.70;7.38;;;;;;;20.96;61.74;99683.25;5055390;28;20079;-77
2021/05/27 16:16:26;;;;;;;8.45;7.60;;;;;;;20.87;62.17;99679.06;5056222;28;20076;-75
2021/05/27 16:18:52;;;;;;;8.40;7.00;;;;;;;20.83;62.23;99683.31;5054605;28;20045;-74
2021/05/27 16:21:18;;;;;;;8.82;7.03;;;;;;;20.85;62.38;99687.53;5053129;28;20524;-75
2021/05/27 16:23:43;;;;;;;11.85;7.70;;;;;;;20.82;62.67;99693.44;5053381;28;20049;-75
2021/05/27 16:26:09;;;;;;;9.50;7.90;;;;;;;20.78;62.79;99686.72;5059944;28;20473;-77
2021/05/27 16:28:35;;;;;;;9.43;7.53;;;;;;;20.78;63.06;99686.72;5056647;28;20046;-75
2021/05/27 16:31:01;;;;;;;9.98;8.25;;;;;;;20.79;63.42;99682.88;5066237;28;20817;-75
2021/05/27 16:33:27;;;;;;;19.83;8.77;;;;;;;20.79;63.73;99685.63;5053092;28;20069;-75
2021/05/27 16:38:24;;;;;;;11.32;8.20;;;;;;;20.71;63.53;99677.66;5060815;28;20040;-76
2021/05/27 16:40:54;;;;;;;11.82;9.30;;;;;;;20.66;64.20;99677.47;5058505;28;20119;-80
2021/05/27 16:43:21;;;;;;;9.45;8.27;;;;;;;20.65;64.14;99686.75;5063589;28;20051;-77
2021/05/27 16:45:48;;;;;;;11.07;8.05;;;;;;;20.68;64.12;99681.66;5057125;28;20094;-75
2021/05/27 16:48:14;;;;;;;10.07;8.88;;;;;;;20.72;64.39;99693.06;5069062;28;20468;-76
2021/05/27 16:50:41;;;;;;;10.65;8.98;;;;;;;20.71;64.18;99688.63;5051743;28;20461;-75
2021/05/27 16:53:08;;;;;;;8.93;7.85;;;;;;;20.63;64.38;99699.88;5053934;28;20051;-74
2021/05/27 16:55:34;;;;;;;10.70;9.15;;;;;;;20.57;64.75;99684.22;5072428;28;20592;-73
2021/05/27 16:58:00;;;;;;;9.93;8.00;;;;;;;20.54;64.35;99691.00;5071365;28;20135;-75
2021/05/27 17:00:28;;;;;;;11.73;9.38;;;;;;;20.56;65.10;99688.06;5063576;28;20101;-74
2021/05/27 17:02:54;;;;;;;13.40;8.77;;;;;;;20.55;65.13;99697.31;5062083;28;20046;-77
2021/05/27 17:05:21;;;;;;;18.13;9.80;;;;;;;20.64;65.46;99694.13;5054356;28;20041;-80
2021/05/27 17:07:47;;;;;;;14.05;8.95;;;;;;;20.79;65.02;99688.38;5028305;28;20557;-75
2021/05/27 17:10:12;;;;;;;12.88;9.40;;;;;;;20.80;65.03;99691.97;5053872;28;20154;-76
2021/05/27 17:12:38;;;;;;;15.02;9.98;;;;;;;20.75;65.68;99691.78;5045885;28;20044;-74
2021/05/27 17:15:06;;;;;;;11.38;10.07;;;;;;;20.65;66.24;99686.75;5057170;28;20405;-74
2021/05/27 17:17:32;;;;;;;16.30;10.57;;;;;;;20.66;66.11;99685.69;5057687;28;20108;-75
2021/05/27 17:19:58;;;;;;;12.80;10.82;;;;;;;20.63;66.83;99683.38;5060002;28;20102;-76
2021/05/27 17:22:25;;;;;;;12.77;11.00;;;;;;;20.62;66.54;99681.66;5062898;28;20616;-74
2021/05/27 17:24:50;;;;;;;13.85;11.02;;;;;;;20.66;66.67;99688.44;5037374;28;20152;-77
2021/05/27 17:27:16;;;;;;;16.00;11.55;;;;;;;20.57;66.98;99684.22;5062148;28;20547;-78
2021/05/27 17:29:42;;;;;;;17.88;11.32;;;;;;;20.71;66.85;99691.38;5044406;28;20177;-69
2021/05/27 17:32:08;;;;;;;14.82;11.25;;;;;;;20.94;66.10;99686.22;5061788;28;20087;-71
2021/05/27 17:34:34;;;;;;;15.38;11.80;;;;;;;21.17;65.58;99684.81;5042712;28;20115;-70
2021/05/27 18:45:51;;;;;;;31.27;19.35;;;;;;;19.45;74.68;99645.63;5050703;27;20476;-75
2021/05/27 18:48:17;;;;;;;25.10;21.27;;;;;;;18.55;78.31;99657.75;5004358;28;20038;-75
2021/05/27 18:50:44;;;;;;;26.02;22.92;;;;;;;18.32;79.79;99658.03;5023742;28;20053;-71
2021/05/27 18:53:11;;;;;;;29.42;22.58;;;;;;;18.10;80.64;99648.19;5023809;28;20029;-70
2021/05/27 18:55:38;;;;;;;27.08;22.20;;;;;;;17.99;81.25;99641.38;4990030;28;20052;-69
2021/05/27 18:58:04;;;;;;;28.95;23.30;;;;;;;17.80;82.00;99637.44;5023224;28;20179;-71
2021/05/27 19:00:30;;;;;;;28.58;22.73;;;;;;;17.68;82.79;99639.00;5021743;28;20033;-70
2021/05/27 19:02:56;;;;;;;31.77;23.98;;;;;;;17.61;83.16;99647.16;5027863;28;20081;-70
2021/05/27 19:05:22;;;;;;;31.05;24.10;;;;;;;17.66;83.08;99644.69;5024275;28;20126;-70
2021/05/27 19:07:48;;;;;;;31.52;23.67;;;;;;;17.57;83.36;99641.22;5024047;28;20050;-71
2021/05/27 19:10:16;;;;;;;27.33;24.00;;;;;;;17.44;83.98;99632.06;5037940;28;20051;-70
2021/05/27 19:12:42;;;;;;;29.80;25.00;;;;;;;17.46;83.92;99630.84;5021152;28;20041;-70
2021/05/27 19:15:10;;;;;;;33.05;25.02;;;;;;;17.39;84.38;99629.91;5055451;28;20038;-70
2021/05/27 19:17:36;;;;;;;33.95;25.85;;;;;;;17.39;84.42;99635.38;5053544;28;20522;-71
2021/05/27 19:20:06;;;;;;;32.17;25.30;;;;;;;17.31;84.87;99621.88;5022165;28;20049;-72
2021/05/27 19:22:32;;;;;;;33.17;26.83;;;;;;;17.25;85.09;99625.38;5022369;28;20045;-71
2021/05/27 19:24:58;;;;;;;33.83;26.40;;;;;;;17.22;85.29;99623.91;5022212;28;20057;-71
2021/05/27 19:27:23;;;;;;;36.78;27.27;;;;;;;17.24;85.12;99626.41;5022051;28;20033;-71
2021/05/27 19:29:49;;;;;;;40.40;29.48;;;;;;;17.26;85.50;99629.81;5023584;28;20155;-71
2021/05/27 19:32:15;;;;;;;41.28;30.83;;;;;;;17.24;85.54;99631.88;5020586;28;20115;-71
2021/05/27 19:34:41;;;;;;;37.60;30.15;;;;;;;17.18;85.89;99624.47;5022085;28;20128;-71
2021/05/27 19:37:07;;;;;;;39.13;31.15;;;;;;;17.46;84.83;99636.31;5021824;28;20042;-78
2021/05/27 19:39:35;;;;;;;58.55;41.85;;;;;;;17.76;83.49;99631.53;5023238;28;20053;-78
2021/05/27 19:42:01;;;;;;;59.90;41.00;;;;;;;17.90;82.84;99632.50;5027173;28;20056;-79
2021/05/27 19:44:26;;;;;;;51.78;40.45;;;;;;;17.95;82.54;99630.03;5023684;28;20464;-76
2021/05/27 19:46:52;;;;;;;52.88;39.58;;;;;;;18.01;82.29;99629.19;5019553;28;20064;-76
2021/05/27 19:49:19;;;;;;;56.75;41.13;;;;;;;18.01;82.27;99629.19;5021195;28;20471;-77
2021/05/27 19:51:45;;;;;;;51.65;39.40;;;;;;;18.02;82.24;99636.34;5013305;28;20074;-78
2021/05/27 19:54:11;;;;;;;58.75;43.53;;;;;;;18.03;82.15;99631.75;5009408;28;20508;-78
2021/05/27 19:56:37;;;;;;;57.47;42.60;;;;;;;18.06;82.20;99632.19;4978679;28;20034;-78
2021/05/27 19:59:04;;;;;;;60.35;44.75;;;;;;;18.06;82.36;99626.72;4974131;28;20484;-80
2021/05/27 20:01:30;;;;;;;62.38;45.45;;;;;;;18.05;82.22;99632.38;4974080;28;20039;-78
2021/05/27 20:03:56;;;;;;;58.72;43.13;;;;;;;18.05;82.24;99632.38;4973892;28;20109;-78
2021/05/27 20:06:22;;;;;;;57.88;44.42;;;;;;;18.03;82.00;99624.38;4975270;28;20044;-78
2021/05/27 20:08:48;;;;;;;62.97;46.38;;;;;;;18.01;82.47;99631.09;4975767;28;20111;-77
2021/05/27 20:11:14;;;;;;;61.85;44.75;;;;;;;17.99;82.57;99628.56;4974615;28;20065;-77
2021/05/27 20:13:40;;;;;;;60.58;45.20;;;;;;;18.00;82.36;99632.16;4989482;28;20403;-79
2021/05/27 20:16:06;;;;;;;57.30;40.40;;;;;;;17.97;82.47;99633.38;4978334;28;20039;-79
2021/05/27 20:18:33;;;;;;;42.55;33.42;;;;;;;17.96;82.09;99626.22;4977537;28;20085;-78
2021/05/27 20:20:59;;;;;;;48.10;32.78;;;;;;;17.94;82.18;99627.47;4962103;28;20034;-79
2021/05/27 20:23:26;;;;;;;42.53;31.75;;;;;;;17.91;82.40;99628.69;4973176;28;20030;-79
2021/05/27 20:25:53;;;;;;;45.95;32.40;;;;;;;17.90;82.49;99632.50;4973556;28;20038;-77
2021/05/27 20:28:18;;;;;;;43.50;32.63;;;;;;;17.94;82.19;99633.78;4973874;28;20120;-78
2021/05/27 20:30:44;;;;;;;43.45;32.05;;;;;;;17.99;82.16;99635.91;4970611;28;20129;-79
2021/05/27 20:33:12;;;;;;;40.30;30.58;;;;;;;17.96;81.99;99628.97;4952940;28;20129;-77
2021/05/27 20:35:38;;;;;;;39.15;29.00;;;;;;;17.99;81.97;99631.31;4972758;28;20058;-77
2021/05/27 20:38:05;;;;;;;37.10;28.55;;;;;;;18.03;82.08;99634.50;4971462;28;20038;-76
2021/05/27 20:40:32;;;;;;;38.67;28.45;;;;;;;18.04;81.61;99627.97;4972788;28;20043;-77
2021/05/27 20:42:58;;;;;;;34.30;26.67;;;;;;;18.04;81.38;99633.44;4970495;28;20043;-78
2021/05/27 20:45:24;;;;;;;33.85;26.65;;;;;;;18.00;81.08;99633.00;4969679;28;20065;-78
2021/05/27 20:47:50;;;;;;;36.22;28.13;;;;;;;18.00;81.50;99634.88;5003716;28;20046;-78
2021/05/27 20:50:17;;;;;;;37.50;28.00;;;;;;;18.01;81.20;99642.88;4971770;28;20101;-77
2021/05/27 20:52:43;;;;;;;39.75;29.00;;;;;;;18.06;81.13;99643.13;4971071;28;20091;-76
2021/05/27 20:55:10;;;;;;;35.95;27.60;;;;;;;18.11;80.73;99633.47;4970946;28;20043;-77
2021/05/27 20:57:36;;;;;;;40.15;27.60;;;;;;;18.22;80.37;99630.19;4968716;28;20409;-77
2021/05/27 21:00:04;;;;;;;39.05;28.88;;;;;;;18.19;80.28;99636.06;4972165;28;20089;-76
2021/05/27 21:02:31;;;;;;;39.65;30.15;;;;;;;18.14;81.26;99635.81;4998088;28;20130;-73
2021/05/27 21:04:57;;;;;;;32.15;23.63;;;;;;;18.67;78.42;99622.41;4971446;28;20043;-76
2021/05/27 21:07:22;;;;;;;26.95;21.50;;;;;;;19.20;76.20;99619.88;4967484;28;20035;-74
2021/05/27 21:09:49;;;;;;;25.85;20.05;;;;;;;19.63;74.35;99627.72;4970073;28;20178;-76
2021/05/27 21:12:15;;;;;;;21.92;18.55;;;;;;;19.98;72.71;99615.47;4970570;28;20551;-75
2021/05/27 21:14:41;;;;;;;23.02;18.05;;;;;;;20.24;71.99;99608.25;4970325;28;20066;-76
2021/05/27 21:17:07;;;;;;;24.40;17.50;;;;;;;20.45;70.97;99616.22;4973368;28;20041;-75
2021/05/27 21:19:33;;;;;;;21.77;16.65;;;;;;;20.63;70.21;99611.97;4970435;28;20042;-74
2021/05/27 21:21:59;;;;;;;18.70;16.42;;;;;;;20.78;69.94;99609.78;4969696;28;20042;-74
2021/05/27 21:24:24;;;;;;;18.75;16.75;;;;;;;20.89;69.23;99597.25;4968583;28;20039;-74
2021/05/27 21:26:50;;;;;;;22.88;16.75;;;;;;;20.99;68.41;99600.38;4970502;28;20313;-74
2021/05/27 21:29:16;;;;;;;20.60;16.73;;;;;;;21.07;68.45;99600.09;4969590;28;20047;-75
2021/05/27 21:31:42;;;;;;;19.65;15.68;;;;;;;21.14;68.02;99600.06;4967179;28;20042;-74
2021/05/27 21:34:07;;;;;;;17.75;15.85;;;;;;;21.19;67.80;99595.56;4973922;28;20397;-74
2021/05/27 21:36:33;;;;;;;17.63;15.40;;;;;;;21.23;67.51;99587.72;4975596;28;20094;-77
2021/05/27 21:38:59;;;;;;;18.20;15.65;;;;;;;21.26;67.35;99587.28;4970628;28;20063;-69
2021/05/27 21:41:25;;;;;;;20.10;17.00;;;;;;;21.25;67.26;99582.84;4966468;28;20066;-70
2021/05/27 21:43:52;;;;;;;24.23;17.13;;;;;;;21.26;67.62;99579.03;4970363;28;20103;-70
2021/05/27 21:46:17;;;;;;;27.50;18.55;;;;;;;21.26;67.40;99584.53;4969449;28;20180;-71
2021/05/27 21:48:43;;;;;;;22.27;17.70;;;;;;;21.26;67.38;99584.53;4970451;28;20486;-76